sensor_id;sensor_type;location;lat;lon;timestamp;pressure;altitude;pressure_sealevel;temperature;humidity
6216;BME280;3141;49.234;9.326;2023-07-16T00:00:27;99476.19;;;23.07;100.00
6216;BME280;3141;49.234;9.326;2023-07-16T00:01:09;99471.28;;;23.04;100.00
6216;BME280;3141;49.234;9.326;2023-07-16T00:01:52;99470.03;;;22.95;100.00
6216;BME280;3141;49.234;9.326;2023-07-16T00:02:34;99482.34;;;22.90;100.00
6216;BME280;3141;49.234;9.326;2023-07-16T00:03:17;99478.03;;;22.89;100.00
6216;BME280;3141;49.234;9.326;2023-07-16T00:03:59;99478.47;;;22.98;100.00
6216;BME280;3141;49.234;9.326;2023-07-16T00:04:41;99485.81;;;23.03;100.00
6216;BME280;3141;49.234;9.326;2023-07-16T00:05:24;99488.59;;;23.08;100.00
6216;BME280;3141;49.234;9.326;2023-07-16T00:06:06;99491.06;;;23.09;100.00
6216;BME280;3141;49.234;9.326;2023-07-16T00:06:48;99484.38;;;23.12;100.00
6216;BME280;3141;49.234;9.326;2023-07-16T00:07:31;99480.06;;;23.11;99.72
6216;BME280;3141;49.234;9.326;2023-07-16T00:08:13;99465.91;;;23.04;99.86
6216;BME280;3141;49.234;9.326;2023-07-16T00:08:55;99467.03;;;23.08;99.34
6216;BME280;3141;49.234;9.326;2023-07-16T00:09:38;99453.47;;;23.03;99.32
6216;BME280;3141;49.234;9.326;2023-07-16T00:10:20;99455.03;;;22.99;99.95
6216;BME280;3141;49.234;9.326;2023-07-16T00:11:03;99448.56;;;23.00;99.36
6216;BME280;3141;49.234;9.326;2023-07-16T00:11:45;99448.47;;;22.95;99.96
6216;BME280;3141;49.234;9.326;2023-07-16T00:12:28;99456.81;;;22.81;100.00
6216;BME280;3141;49.234;9.326;2023-07-16T00:13:10;99454.56;;;22.90;100.00
6216;BME280;3141;49.234;9.326;2023-07-16T00:13:53;99453.72;;;23.01;100.00
6216;BME280;3141;49.234;9.326;2023-07-16T00:14:35;99450.28;;;23.06;100.00
6216;BME280;3141;49.234;9.326;2023-07-16T00:15:18;99445.34;;;23.14;99.50
6216;BME280;3141;49.234;9.326;2023-07-16T00:16:00;99430.03;;;23.20;98.14
6216;BME280;3141;49.234;9.326;2023-07-16T00:16:42;99424.31;;;23.28;98.14
6216;BME280;3141;49.234;9.326;2023-07-16T00:17:25;99427.44;;;23.25;98.84
6216;BME280;3141;49.234;9.326;2023-07-16T00:18:07;99430.63;;;23.22;98.15
6216;BME280;3141;49.234;9.326;2023-07-16T00:18:49;99424.72;;;23.25;97.02
6216;BME280;3141;49.234;9.326;2023-07-16T00:19:32;99435.41;;;23.31;96.38
6216;BME280;3141;49.234;9.326;2023-07-16T00:20:14;99440.56;;;23.33;96.71
6216;BME280;3141;49.234;9.326;2023-07-16T00:20:56;99451.59;;;23.31;97.02
6216;BME280;3141;49.234;9.326;2023-07-16T00:21:39;99455.47;;;23.24;97.06
6216;BME280;3141;49.234;9.326;2023-07-16T00:22:21;99455.47;;;23.24;97.40
6216;BME280;3141;49.234;9.326;2023-07-16T00:23:03;99460.38;;;23.27;97.32
6216;BME280;3141;49.234;9.326;2023-07-16T00:23:46;99462.63;;;23.30;97.31
6216;BME280;3141;49.234;9.326;2023-07-16T00:24:28;99465.31;;;23.30;97.50
6216;BME280;3141;49.234;9.326;2023-07-16T00:25:10;99469.53;;;23.26;98.17
6216;BME280;3141;49.234;9.326;2023-07-16T00:25:52;99475.19;;;23.24;97.72
6216;BME280;3141;49.234;9.326;2023-07-16T00:26:35;99472.16;;;23.21;97.75
6216;BME280;3141;49.234;9.326;2023-07-16T00:27:17;99473.78;;;23.22;97.36
6216;BME280;3141;49.234;9.326;2023-07-16T00:28:00;99470.03;;;23.23;97.41
6216;BME280;3141;49.234;9.326;2023-07-16T00:28:42;99471.16;;;23.27;95.95
6216;BME280;3141;49.234;9.326;2023-07-16T00:29:24;99472.59;;;23.29;95.66
6216;BME280;3141;49.234;9.326;2023-07-16T00:30:08;99476.63;;;23.15;97.88
6216;BME280;3141;49.234;9.326;2023-07-16T00:30:50;99489.97;;;23.22;96.80
6216;BME280;3141;49.234;9.326;2023-07-16T00:31:32;99481.16;;;23.26;97.16
6216;BME280;3141;49.234;9.326;2023-07-16T00:32:15;99489.47;;;23.25;97.90
6216;BME280;3141;49.234;9.326;2023-07-16T00:32:57;99485.66;;;23.09;97.82
6216;BME280;3141;49.234;9.326;2023-07-16T00:33:39;99467.72;;;23.15;97.15
6216;BME280;3141;49.234;9.326;2023-07-16T00:34:22;99469.53;;;23.26;95.78
6216;BME280;3141;49.234;9.326;2023-07-16T00:35:04;99473.66;;;23.28;95.87
6216;BME280;3141;49.234;9.326;2023-07-16T00:35:49;99467.09;;;23.24;95.78
6216;BME280;3141;49.234;9.326;2023-07-16T00:36:31;99465.31;;;23.30;94.33
6216;BME280;3141;49.234;9.326;2023-07-16T00:37:14;99457.78;;;23.32;95.85
6216;BME280;3141;49.234;9.326;2023-07-16T00:37:56;99457.78;;;23.32;96.68
6216;BME280;3141;49.234;9.326;2023-07-16T00:38:38;99466.84;;;23.26;96.31
6216;BME280;3141;49.234;9.326;2023-07-16T00:39:22;99460.25;;;23.33;94.97
6216;BME280;3141;49.234;9.326;2023-07-16T00:40:06;99469.91;;;23.29;95.01
6216;BME280;3141;49.234;9.326;2023-07-16T00:40:49;99466.47;;;23.34;95.29
6216;BME280;3141;49.234;9.326;2023-07-16T00:41:32;99476.31;;;23.40;95.79
6216;BME280;3141;49.234;9.326;2023-07-16T00:42:14;99467.63;;;23.38;96.29
6216;BME280;3141;49.234;9.326;2023-07-16T00:42:56;99465.59;;;23.45;95.62
6216;BME280;3141;49.234;9.326;2023-07-16T00:43:39;99459.94;;;23.46;96.48
6216;BME280;3141;49.234;9.326;2023-07-16T00:44:22;99453.47;;;23.47;95.38
6216;BME280;3141;49.234;9.326;2023-07-16T00:45:09;99444.34;;;23.48;95.79
6216;BME280;3141;49.234;9.326;2023-07-16T00:45:51;99441.97;;;23.52;95.76
6216;BME280;3141;49.234;9.326;2023-07-16T00:46:33;99440.81;;;23.48;95.66
6216;BME280;3141;49.234;9.326;2023-07-16T00:47:16;99439.41;;;23.45;96.06
6216;BME280;3141;49.234;9.326;2023-07-16T00:47:58;99442.34;;;23.44;95.20
6216;BME280;3141;49.234;9.326;2023-07-16T00:48:42;99438.13;;;23.48;94.76
6216;BME280;3141;49.234;9.326;2023-07-16T00:49:24;99438.03;;;23.43;95.88
6216;BME280;3141;49.234;9.326;2023-07-16T00:50:08;99435.91;;;23.45;95.87
6216;BME280;3141;49.234;9.326;2023-07-16T00:50:52;99438.63;;;23.45;95.31
6216;BME280;3141;49.234;9.326;2023-07-16T00:51:34;99430.28;;;23.46;94.99
6216;BME280;3141;49.234;9.326;2023-07-16T00:52:18;99434.59;;;23.47;94.67
6216;BME280;3141;49.234;9.326;2023-07-16T00:53:02;99436.38;;;23.42;95.52
6216;BME280;3141;49.234;9.326;2023-07-16T00:53:46;99440.50;;;23.44;95.30
6216;BME280;3141;49.234;9.326;2023-07-16T00:54:31;99447.75;;;23.44;95.36
6216;BME280;3141;49.234;9.326;2023-07-16T00:55:14;99443.53;;;23.48;95.11
6216;BME280;3141;49.234;9.326;2023-07-16T00:55:56;99446.22;;;23.48;96.15
6216;BME280;3141;49.234;9.326;2023-07-16T00:56:39;99447.28;;;23.47;96.95
6216;BME280;3141;49.234;9.326;2023-07-16T00:57:21;99448.84;;;23.43;97.26
6216;BME280;3141;49.234;9.326;2023-07-16T00:58:07;99444.97;;;23.39;96.54
6216;BME280;3141;49.234;9.326;2023-07-16T00:58:50;99441.31;;;23.45;96.19
6216;BME280;3141;49.234;9.326;2023-07-16T00:59:32;99441.91;;;23.47;95.88
6216;BME280;3141;49.234;9.326;2023-07-16T01:00:14;99443.28;;;23.49;96.21
6216;BME280;3141;49.234;9.326;2023-07-16T01:00:57;99450.53;;;23.49;95.46
6216;BME280;3141;49.234;9.326;2023-07-16T01:01:39;99451.13;;;23.34;96.71
6216;BME280;3141;49.234;9.326;2023-07-16T01:02:22;99442.03;;;23.40;96.16
6216;BME280;3141;49.234;9.326;2023-07-16T01:03:06;99447.28;;;23.47;95.58
6216;BME280;3141;49.234;9.326;2023-07-16T01:03:49;99445.38;;;23.47;94.96
6216;BME280;3141;49.234;9.326;2023-07-16T01:04:31;99450.31;;;23.50;94.43
6216;BME280;3141;49.234;9.326;2023-07-16T01:05:14;99441.31;;;23.45;95.14
6216;BME280;3141;49.234;9.326;2023-07-16T01:06:25;99444.59;;;23.47;93.59
6216;BME280;3141;49.234;9.326;2023-07-16T01:07:11;99441.78;;;23.42;94.64
6216;BME280;3141;49.234;9.326;2023-07-16T01:08:00;99440.97;;;23.41;94.81
6216;BME280;3141;49.234;9.326;2023-07-16T01:08:52;99439.16;;;23.30;93.62
6216;BME280;3141;49.234;9.326;2023-07-16T01:09:39;99437.88;;;23.33;93.01
6216;BME280;3141;49.234;9.326;2023-07-16T01:10:23;99436.22;;;23.32;94.55
6216;BME280;3141;49.234;9.326;2023-07-16T01:11:07;99429.19;;;23.31;93.00
6216;BME280;3141;49.234;9.326;2023-07-16T01:11:51;99431.31;;;23.29;93.75
6216;BME280;3141;49.234;9.326;2023-07-16T01:12:36;99435.09;;;23.28;92.92
6216;BME280;3141;49.234;9.326;2023-07-16T01:13:19;99437.66;;;23.23;92.36
6216;BME280;3141;49.234;9.326;2023-07-16T01:14:02;99433.22;;;23.17;91.64
6216;BME280;3141;49.234;9.326;2023-07-16T01:14:45;99432.06;;;23.13;91.50
6216;BME280;3141;49.234;9.326;2023-07-16T01:15:27;99437.72;;;23.11;91.68
6216;BME280;3141;49.234;9.326;2023-07-16T01:16:23;99435.94;;;23.17;91.74
6216;BME280;3141;49.234;9.326;2023-07-16T01:17:07;99441.56;;;23.15;91.46
6216;BME280;3141;49.234;9.326;2023-07-16T01:17:49;99446.44;;;23.02;91.14
6216;BME280;3141;49.234;9.326;2023-07-16T01:18:31;99452.63;;;23.02;92.57
6216;BME280;3141;49.234;9.326;2023-07-16T01:19:14;99451.00;;;23.01;92.23
6216;BME280;3141;49.234;9.326;2023-07-16T01:19:56;99459.84;;;22.97;92.83
6216;BME280;3141;49.234;9.326;2023-07-16T01:20:38;99472.06;;;22.87;92.90
6216;BME280;3141;49.234;9.326;2023-07-16T01:21:23;99484.34;;;22.83;92.10
6216;BME280;3141;49.234;9.326;2023-07-16T01:22:31;99491.81;;;22.65;93.38
6216;BME280;3141;49.234;9.326;2023-07-16T01:23:43;99506.91;;;22.66;93.63
6216;BME280;3141;49.234;9.326;2023-07-16T01:26:06;99513.25;;;22.60;93.37
6216;BME280;3141;49.234;9.326;2023-07-16T01:27:50;99508.44;;;22.62;93.20
6216;BME280;3141;49.234;9.326;2023-07-16T01:29:09;99503.53;;;22.59;93.03
6216;BME280;3141;49.234;9.326;2023-07-16T01:29:58;99490.88;;;22.59;93.26
6216;BME280;3141;49.234;9.326;2023-07-16T01:30:43;99488.72;;;22.73;92.40
6216;BME280;3141;49.234;9.326;2023-07-16T01:31:26;99500.91;;;22.75;92.33
6216;BME280;3141;49.234;9.326;2023-07-16T01:32:11;99496.25;;;22.59;93.05
6216;BME280;3141;49.234;9.326;2023-07-16T01:32:55;99506.44;;;22.57;93.55
6216;BME280;3141;49.234;9.326;2023-07-16T01:33:39;99522.38;;;22.47;93.52
6216;BME280;3141;49.234;9.326;2023-07-16T01:34:25;99523.09;;;22.54;93.33
6216;BME280;3141;49.234;9.326;2023-07-16T01:35:10;99526.59;;;22.66;92.39
6216;BME280;3141;49.234;9.326;2023-07-16T01:35:53;99527.31;;;22.62;93.16
6216;BME280;3141;49.234;9.326;2023-07-16T01:36:37;99517.91;;;22.53;93.41
6216;BME280;3141;49.234;9.326;2023-07-16T01:37:21;99518.97;;;22.52;93.42
6216;BME280;3141;49.234;9.326;2023-07-16T01:38:03;99511.63;;;22.59;92.54
6216;BME280;3141;49.234;9.326;2023-07-16T01:38:46;99519.56;;;22.65;92.04
6216;BME280;3141;49.234;9.326;2023-07-16T01:39:30;99514.88;;;22.61;92.55
6216;BME280;3141;49.234;9.326;2023-07-16T01:40:12;99525.09;;;22.59;93.67
6216;BME280;3141;49.234;9.326;2023-07-16T01:40:56;99524.03;;;22.60;92.46
6216;BME280;3141;49.234;9.326;2023-07-16T01:41:38;99537.84;;;22.63;92.32
6216;BME280;3141;49.234;9.326;2023-07-16T01:42:20;99537.75;;;22.58;91.85
6216;BME280;3141;49.234;9.326;2023-07-16T01:43:03;99546.63;;;22.47;91.93
6216;BME280;3141;49.234;9.326;2023-07-16T01:43:45;99541.25;;;22.24;91.73
6216;BME280;3141;49.234;9.326;2023-07-16T01:44:27;99542.16;;;22.18;92.67
6216;BME280;3141;49.234;9.326;2023-07-16T01:45:10;99554.72;;;22.24;92.76
6216;BME280;3141;49.234;9.326;2023-07-16T01:45:52;99554.72;;;22.24;92.20
6216;BME280;3141;49.234;9.326;2023-07-16T01:46:35;99543.72;;;22.26;92.02
6216;BME280;3141;49.234;9.326;2023-07-16T01:48:14;99532.22;;;22.30;91.02
6216;BME280;3141;49.234;9.326;2023-07-16T01:48:58;99533.53;;;22.28;89.81
6216;BME280;3141;49.234;9.326;2023-07-16T01:49:41;99532.94;;;22.26;90.55
6216;BME280;3141;49.234;9.326;2023-07-16T01:50:26;99530.47;;;22.24;90.19
6216;BME280;3141;49.234;9.326;2023-07-16T01:51:08;99523.22;;;22.13;90.25
6216;BME280;3141;49.234;9.326;2023-07-16T01:51:51;99522.25;;;22.08;89.39
6216;BME280;3141;49.234;9.326;2023-07-16T01:52:33;99515.25;;;22.07;88.15
6216;BME280;3141;49.234;9.326;2023-07-16T01:53:16;99507.16;;;22.18;87.89
6216;BME280;3141;49.234;9.326;2023-07-16T01:53:58;99513.13;;;22.20;88.28
6216;BME280;3141;49.234;9.326;2023-07-16T01:54:40;99524.13;;;22.30;87.62
6216;BME280;3141;49.234;9.326;2023-07-16T01:55:22;99531.88;;;22.15;87.88
6216;BME280;3141;49.234;9.326;2023-07-16T01:56:48;99546.53;;;22.19;87.63
6216;BME280;3141;49.234;9.326;2023-07-16T01:57:30;99556.34;;;22.14;87.39
6216;BME280;3141;49.234;9.326;2023-07-16T01:58:12;99550.72;;;22.04;87.90
6216;BME280;3141;49.234;9.326;2023-07-16T01:58:55;99560.06;;;22.01;86.72
6216;BME280;3141;49.234;9.326;2023-07-16T01:59:37;99556.00;;;22.10;86.60
6216;BME280;3141;49.234;9.326;2023-07-16T02:00:19;99555.41;;;22.20;86.31
6216;BME280;3141;49.234;9.326;2023-07-16T02:01:02;99548.63;;;22.17;86.20
6216;BME280;3141;49.234;9.326;2023-07-16T02:01:44;99545.69;;;22.19;85.79
6216;BME280;3141;49.234;9.326;2023-07-16T02:02:26;99541.94;;;22.08;85.38
6216;BME280;3141;49.234;9.326;2023-07-16T02:03:09;99545.94;;;22.17;86.24
6216;BME280;3141;49.234;9.326;2023-07-16T02:03:51;99542.41;;;22.17;85.90
6216;BME280;3141;49.234;9.326;2023-07-16T02:04:34;99538.28;;;22.03;85.16
6216;BME280;3141;49.234;9.326;2023-07-16T02:05:16;99539.00;;;22.10;85.84
6216;BME280;3141;49.234;9.326;2023-07-16T02:05:58;99537.59;;;22.07;86.04
6216;BME280;3141;49.234;9.326;2023-07-16T02:06:41;99531.97;;;21.97;85.24
6216;BME280;3141;49.234;9.326;2023-07-16T02:07:23;99528.84;;;22.00;85.52
6216;BME280;3141;49.234;9.326;2023-07-16T02:08:06;99531.59;;;21.94;84.35
6216;BME280;3141;49.234;9.326;2023-07-16T02:08:48;99534.66;;;21.97;84.21
6216;BME280;3141;49.234;9.326;2023-07-16T02:09:31;99533.38;;;21.88;84.19
6216;BME280;3141;49.234;9.326;2023-07-16T02:10:13;99543.44;;;21.93;84.90
6216;BME280;3141;49.234;9.326;2023-07-16T02:10:55;99552.22;;;21.88;84.48
6216;BME280;3141;49.234;9.326;2023-07-16T02:11:38;99554.03;;;21.76;83.84
6216;BME280;3141;49.234;9.326;2023-07-16T02:12:20;99548.59;;;21.94;84.00
6216;BME280;3141;49.234;9.326;2023-07-16T02:13:02;99548.59;;;22.06;84.68
6216;BME280;3141;49.234;9.326;2023-07-16T02:13:45;99546.63;;;22.01;84.56
6216;BME280;3141;49.234;9.326;2023-07-16T02:14:27;99545.53;;;22.02;84.48
6216;BME280;3141;49.234;9.326;2023-07-16T02:15:09;99536.75;;;21.95;83.94
6216;BME280;3141;49.234;9.326;2023-07-16T02:15:52;99547.69;;;22.00;83.48
6216;BME280;3141;49.234;9.326;2023-07-16T02:16:34;99550.38;;;22.00;83.42
6216;BME280;3141;49.234;9.326;2023-07-16T02:17:16;99545.78;;;22.01;83.35
6216;BME280;3141;49.234;9.326;2023-07-16T02:17:59;99558.69;;;22.10;83.99
6216;BME280;3141;49.234;9.326;2023-07-16T02:18:41;99554.34;;;22.09;84.66
6216;BME280;3141;49.234;9.326;2023-07-16T02:19:23;99560.06;;;22.01;84.66
6216;BME280;3141;49.234;9.326;2023-07-16T02:20:08;99562.03;;;21.94;85.08
6216;BME280;3141;49.234;9.326;2023-07-16T02:20:52;99561.69;;;21.91;83.62
6216;BME280;3141;49.234;9.326;2023-07-16T02:21:34;99559.84;;;22.03;84.30
6216;BME280;3141;49.234;9.326;2023-07-16T02:22:17;99557.97;;;22.03;84.43
6216;BME280;3141;49.234;9.326;2023-07-16T02:22:59;99559.94;;;21.96;84.43
6216;BME280;3141;49.234;9.326;2023-07-16T02:23:41;99557.59;;;21.88;84.19
6216;BME280;3141;49.234;9.326;2023-07-16T02:24:24;99558.44;;;22.00;84.79
6216;BME280;3141;49.234;9.326;2023-07-16T02:25:06;99561.13;;;22.00;84.13
6216;BME280;3141;49.234;9.326;2023-07-16T02:25:48;99569.16;;;21.89;84.65
6216;BME280;3141;49.234;9.326;2023-07-16T02:26:31;99568.94;;;21.90;84.45
6216;BME280;3141;49.234;9.326;2023-07-16T02:27:13;99573.53;;;22.01;84.06
6216;BME280;3141;49.234;9.326;2023-07-16T02:27:55;99577.00;;;21.90;84.67
6216;BME280;3141;49.234;9.326;2023-07-16T02:28:38;99581.97;;;21.93;84.43
6216;BME280;3141;49.234;9.326;2023-07-16T02:29:20;99576.28;;;21.83;84.81
6216;BME280;3141;49.234;9.326;2023-07-16T02:30:03;99579.88;;;21.65;85.34
6216;BME280;3141;49.234;9.326;2023-07-16T02:30:45;99583.94;;;21.68;84.89
6216;BME280;3141;49.234;9.326;2023-07-16T02:31:27;99577.53;;;21.69;85.77
6216;BME280;3141;49.234;9.326;2023-07-16T02:32:09;99575.78;;;21.74;85.73
6216;BME280;3141;49.234;9.326;2023-07-16T02:32:52;99578.53;;;21.86;85.82
6216;BME280;3141;49.234;9.326;2023-07-16T02:33:34;99576.25;;;21.71;86.17
6216;BME280;3141;49.234;9.326;2023-07-16T02:34:16;99575.41;;;21.71;85.19
6216;BME280;3141;49.234;9.326;2023-07-16T02:35:00;99569.81;;;21.72;85.23
6216;BME280;3141;49.234;9.326;2023-07-16T02:35:49;99568.38;;;21.88;84.86
6216;BME280;3141;49.234;9.326;2023-07-16T02:36:33;99568.63;;;21.98;85.07
6216;BME280;3141;49.234;9.326;2023-07-16T02:37:16;99565.69;;;22.00;85.36
6216;BME280;3141;49.234;9.326;2023-07-16T02:37:58;99562.53;;;21.91;85.04
6216;BME280;3141;49.234;9.326;2023-07-16T02:38:40;99562.75;;;22.01;84.63
6216;BME280;3141;49.234;9.326;2023-07-16T02:39:23;99559.38;;;22.06;84.70
6216;BME280;3141;49.234;9.326;2023-07-16T02:40:07;99566.97;;;21.97;85.57
6216;BME280;3141;49.234;9.326;2023-07-16T02:40:49;99570.59;;;22.03;84.47
6216;BME280;3141;49.234;9.326;2023-07-16T02:41:32;99572.59;;;22.07;85.12
6216;BME280;3141;49.234;9.326;2023-07-16T02:42:14;99573.66;;;22.06;84.98
6216;BME280;3141;49.234;9.326;2023-07-16T02:42:56;99576.81;;;22.03;85.31
6216;BME280;3141;49.234;9.326;2023-07-16T02:43:39;99586.16;;;22.01;85.07
6216;BME280;3141;49.234;9.326;2023-07-16T02:44:21;99581.59;;;22.01;85.14
6216;BME280;3141;49.234;9.326;2023-07-16T02:45:04;99574.00;;;21.98;84.61
6216;BME280;3141;49.234;9.326;2023-07-16T02:45:46;99579.38;;;21.98;85.49
6216;BME280;3141;49.234;9.326;2023-07-16T02:46:28;99574.91;;;21.92;84.93
6216;BME280;3141;49.234;9.326;2023-07-16T02:47:11;99565.44;;;21.90;86.21
6216;BME280;3141;49.234;9.326;2023-07-16T02:47:53;99562.75;;;21.90;85.31
6216;BME280;3141;49.234;9.326;2023-07-16T02:48:36;99560.75;;;21.85;85.13
6216;BME280;3141;49.234;9.326;2023-07-16T02:49:18;99564.38;;;21.79;85.80
6216;BME280;3141;49.234;9.326;2023-07-16T02:50:00;99565.88;;;21.87;86.82
6216;BME280;3141;49.234;9.326;2023-07-16T02:50:43;99573.41;;;21.85;88.48
6216;BME280;3141;49.234;9.326;2023-07-16T02:51:25;99572.69;;;21.89;87.13
6216;BME280;3141;49.234;9.326;2023-07-16T02:52:07;99577.47;;;21.87;87.34
6216;BME280;3141;49.234;9.326;2023-07-16T02:52:50;99579.50;;;21.92;86.91
6216;BME280;3141;49.234;9.326;2023-07-16T02:53:32;99583.34;;;21.96;86.89
6216;BME280;3141;49.234;9.326;2023-07-16T02:54:14;99585.22;;;21.95;87.07
6216;BME280;3141;49.234;9.326;2023-07-16T02:54:56;99583.13;;;21.97;86.57
6216;BME280;3141;49.234;9.326;2023-07-16T02:55:39;99588.13;;;21.94;86.50
6216;BME280;3141;49.234;9.326;2023-07-16T02:56:21;99584.06;;;21.91;86.40
6216;BME280;3141;49.234;9.326;2023-07-16T02:57:05;99587.28;;;21.82;86.36
6216;BME280;3141;49.234;9.326;2023-07-16T02:57:47;99588.13;;;21.82;87.21
6216;BME280;3141;49.234;9.326;2023-07-16T02:58:29;99586.94;;;21.78;85.99
6216;BME280;3141;49.234;9.326;2023-07-16T02:59:12;99582.50;;;21.84;86.42
6216;BME280;3141;49.234;9.326;2023-07-16T02:59:54;99593.28;;;21.84;86.71
6216;BME280;3141;49.234;9.326;2023-07-16T03:00:36;99586.94;;;21.78;86.62
6216;BME280;3141;49.234;9.326;2023-07-16T03:01:19;99584.59;;;21.82;86.71
6216;BME280;3141;49.234;9.326;2023-07-16T03:02:01;99580.63;;;21.84;87.21
6216;BME280;3141;49.234;9.326;2023-07-16T03:02:43;99578.66;;;21.91;86.25
6216;BME280;3141;49.234;9.326;2023-07-16T03:03:26;99572.59;;;21.66;86.45
6216;BME280;3141;49.234;9.326;2023-07-16T03:04:08;99572.94;;;21.58;87.11
6216;BME280;3141;49.234;9.326;2023-07-16T03:04:50;99574.72;;;21.64;87.21
6216;BME280;3141;49.234;9.326;2023-07-16T03:05:33;99573.41;;;21.66;87.07
6216;BME280;3141;49.234;9.326;2023-07-16T03:06:15;99579.28;;;21.75;86.80
6216;BME280;3141;49.234;9.326;2023-07-16T03:06:57;99587.81;;;21.72;86.84
6216;BME280;3141;49.234;9.326;2023-07-16T03:07:39;99584.53;;;21.70;86.93
6216;BME280;3141;49.234;9.326;2023-07-16T03:08:22;99581.75;;;21.76;86.83
6216;BME280;3141;49.234;9.326;2023-07-16T03:09:08;99582.56;;;21.77;87.01
6216;BME280;3141;49.234;9.326;2023-07-16T03:09:50;99584.25;;;21.78;85.80
6216;BME280;3141;49.234;9.326;2023-07-16T03:10:33;99581.31;;;21.79;85.89
6216;BME280;3141;49.234;9.326;2023-07-16T03:11:15;99585.91;;;21.79;86.37
6216;BME280;3141;49.234;9.326;2023-07-16T03:11:57;99582.22;;;21.73;86.62
6216;BME280;3141;49.234;9.326;2023-07-16T03:12:40;99584.00;;;21.79;86.46
6216;BME280;3141;49.234;9.326;2023-07-16T03:13:22;99582.69;;;21.70;85.94
6216;BME280;3141;49.234;9.326;2023-07-16T03:14:05;99587.00;;;21.71;86.90
6216;BME280;3141;49.234;9.326;2023-07-16T03:14:47;99581.03;;;21.69;86.77
6216;BME280;3141;49.234;9.326;2023-07-16T03:15:29;99587.81;;;21.72;85.78
6216;BME280;3141;49.234;9.326;2023-07-16T03:16:13;99585.97;;;21.72;86.04
6216;BME280;3141;49.234;9.326;2023-07-16T03:16:55;99591.13;;;21.74;85.94
6216;BME280;3141;49.234;9.326;2023-07-16T03:17:38;99599.34;;;21.79;85.78
6216;BME280;3141;49.234;9.326;2023-07-16T03:18:20;99599.94;;;21.81;85.89
6216;BME280;3141;49.234;9.326;2023-07-16T03:19:02;99587.97;;;21.77;85.13
6216;BME280;3141;49.234;9.326;2023-07-16T03:19:44;99588.06;;;21.70;85.36
6216;BME280;3141;49.234;9.326;2023-07-16T03:20:27;99591.13;;;21.74;84.40
6216;BME280;3141;49.234;9.326;2023-07-16T03:21:09;99587.22;;;21.70;84.98
6216;BME280;3141;49.234;9.326;2023-07-16T03:21:52;99589.31;;;21.68;85.31
6216;BME280;3141;49.234;9.326;2023-07-16T03:22:34;99596.03;;;21.77;85.08
6216;BME280;3141;49.234;9.326;2023-07-16T03:23:16;99592.81;;;21.57;84.39
6216;BME280;3141;49.234;9.326;2023-07-16T03:23:58;99586.34;;;21.46;85.78
6216;BME280;3141;49.234;9.326;2023-07-16T03:24:41;99583.16;;;21.38;86.33
6216;BME280;3141;49.234;9.326;2023-07-16T03:25:23;99590.66;;;21.47;86.05
6216;BME280;3141;49.234;9.326;2023-07-16T03:26:06;99587.75;;;21.49;85.86
6216;BME280;3141;49.234;9.326;2023-07-16T03:26:48;99587.75;;;21.49;86.58
6216;BME280;3141;49.234;9.326;2023-07-16T03:27:30;99592.09;;;21.50;85.58
6216;BME280;3141;49.234;9.326;2023-07-16T03:28:13;99599.47;;;21.54;85.67
6216;BME280;3141;49.234;9.326;2023-07-16T03:28:55;99598.34;;;21.62;86.36
6216;BME280;3141;49.234;9.326;2023-07-16T03:29:37;99584.66;;;21.63;85.64
6216;BME280;3141;49.234;9.326;2023-07-16T03:30:20;99585.91;;;21.61;85.08
6216;BME280;3141;49.234;9.326;2023-07-16T03:31:02;99588.50;;;21.67;85.03
6216;BME280;3141;49.234;9.326;2023-07-16T03:31:44;99589.19;;;21.63;85.24
6216;BME280;3141;49.234;9.326;2023-07-16T03:32:27;99591.53;;;21.59;85.94
6216;BME280;3141;49.234;9.326;2023-07-16T03:33:09;99591.63;;;21.53;85.76
6216;BME280;3141;49.234;9.326;2023-07-16T03:33:51;99589.97;;;21.52;85.50
6216;BME280;3141;49.234;9.326;2023-07-16T03:34:34;99581.31;;;21.50;85.39
6216;BME280;3141;49.234;9.326;2023-07-16T03:35:16;99580.88;;;21.53;84.93
6216;BME280;3141;49.234;9.326;2023-07-16T03:35:58;99584.94;;;21.55;84.55
6216;BME280;3141;49.234;9.326;2023-07-16T03:36:40;99588.97;;;21.64;84.34
6216;BME280;3141;49.234;9.326;2023-07-16T03:37:23;99593.38;;;21.59;84.32
6216;BME280;3141;49.234;9.326;2023-07-16T03:38:05;99600.09;;;21.68;84.39
6216;BME280;3141;49.234;9.326;2023-07-16T03:38:47;99602.47;;;21.76;84.04
6216;BME280;3141;49.234;9.326;2023-07-16T03:39:30;99608.88;;;21.75;84.67
6216;BME280;3141;49.234;9.326;2023-07-16T03:40:17;99607.25;;;21.74;85.45
6216;BME280;3141;49.234;9.326;2023-07-16T03:40:59;99617.72;;;21.82;84.84
6216;BME280;3141;49.234;9.326;2023-07-16T03:41:42;99617.06;;;21.68;85.12
6216;BME280;3141;49.234;9.326;2023-07-16T03:42:24;99618.81;;;21.74;84.85
6216;BME280;3141;49.234;9.326;2023-07-16T03:43:06;99622.22;;;21.70;84.95
6216;BME280;3141;49.234;9.326;2023-07-16T03:43:50;99620.13;;;21.72;84.81
6216;BME280;3141;49.234;9.326;2023-07-16T03:44:32;99618.53;;;21.53;84.45
6216;BME280;3141;49.234;9.326;2023-07-16T03:45:14;99621.94;;;21.60;85.90
6216;BME280;3141;49.234;9.326;2023-07-16T03:45:57;99627.56;;;21.58;85.33
6216;BME280;3141;49.234;9.326;2023-07-16T03:46:39;99630.69;;;21.55;84.86
6216;BME280;3141;49.234;9.326;2023-07-16T03:47:21;99634.81;;;21.58;84.81
6216;BME280;3141;49.234;9.326;2023-07-16T03:48:04;99632.72;;;21.60;85.43
6216;BME280;3141;49.234;9.326;2023-07-16T03:48:46;99626.00;;;21.51;84.62
6216;BME280;3141;49.234;9.326;2023-07-16T03:49:29;99621.97;;;21.42;85.27
6216;BME280;3141;49.234;9.326;2023-07-16T03:50:11;99625.53;;;21.54;84.70
6216;BME280;3141;49.234;9.326;2023-07-16T03:50:53;99624.16;;;21.63;84.38
6216;BME280;3141;49.234;9.326;2023-07-16T03:51:36;99624.91;;;21.70;84.82
6216;BME280;3141;49.234;9.326;2023-07-16T03:52:18;99622.34;;;21.75;83.71
6216;BME280;3141;49.234;9.326;2023-07-16T03:53:00;99630.34;;;21.82;84.07
6216;BME280;3141;49.234;9.326;2023-07-16T03:53:43;99631.53;;;21.86;83.49
6216;BME280;3141;49.234;9.326;2023-07-16T03:54:25;99634.84;;;21.88;84.48
6216;BME280;3141;49.234;9.326;2023-07-16T03:55:07;99637.53;;;21.88;85.09
6216;BME280;3141;49.234;9.326;2023-07-16T03:55:50;99634.69;;;21.83;85.09
6216;BME280;3141;49.234;9.326;2023-07-16T03:56:32;99633.63;;;21.84;84.25
6216;BME280;3141;49.234;9.326;2023-07-16T03:57:14;99623.84;;;21.71;83.44
6216;BME280;3141;49.234;9.326;2023-07-16T03:57:56;99634.78;;;21.76;83.68
6216;BME280;3141;49.234;9.326;2023-07-16T03:58:39;99635.38;;;21.78;84.06
6216;BME280;3141;49.234;9.326;2023-07-16T03:59:21;99637.53;;;21.88;83.70